PWSweather.com
Personal Weather Stations
Station Observations
NORTHPOLE1
Tombur Subdivision, North Pole, AK 99705

Tombur SubdivisionNorth Pole, AK 99705

Lat: 64.774039, Lon: -147.284862

Elevation: 434

Station Type: Davis Vantage Pro 2

http://kl7ac.com

High Low Average
Temperature 52.0°F11.1°C 28.5°F-1.9°C 40.6°F4.8°C
Dew Point 30.7°F-0.7°C 20.3°F-6.5°C 24.8°F-4.0°C
Winds 12.0 mph 19.3 kmh Calm Calm 4.0 mph SE6.4 kmh SE
Wind Gusts 25.0 mph40.2 kmh -- 9.0 mph14.5 kmh
Humidity 83% 30% 57%
Pressure 29.61 in1002.7 mb 29.45 in997.3 mb -
Precipitation 0.00 in0.0 mm - -
Hour Temp Dew Point Humidity Winds Wind Gusts Pressure Precip Precip Rate Daily Precip Total
12:00 AM 37.5°F3.1°C 23.2°F-4.9°C 56% 2.0 mph E3.2 kmh E 5.0 mph8.0 kmh 29.51 in999.3 mb 0.00 in0.0 mm 0.00 in0.0 mm 0.00 in0.0 mm
12:05 AM 37.2°F2.9°C 23.8°F-4.6°C 58% 1.0 mph E1.6 kmh E 4.0 mph6.4 kmh 29.51 in999.3 mb 0.00 in0.0 mm 0.00 in0.0 mm 0.00 in0.0 mm
12:10 AM 36.9°F2.7°C 22.7°F-5.2°C 56% 2.0 mph E3.2 kmh E 5.0 mph8.0 kmh 29.51 in999.3 mb 0.00 in0.0 mm 0.00 in0.0 mm 0.00 in0.0 mm
12:15 AM 36.4°F2.4°C 23.0°F-5.0°C 58% 2.0 mph ENE3.2 kmh ENE 5.0 mph8.0 kmh 29.51 in999.3 mb 0.00 in0.0 mm 0.00 in0.0 mm 0.00 in0.0 mm
12:20 AM 36.0°F2.2°C 23.4°F-4.8°C 60% 2.0 mph ENE3.2 kmh ENE 6.0 mph9.7 kmh 29.51 in999.3 mb 0.00 in0.0 mm 0.00 in0.0 mm 0.00 in0.0 mm
12:25 AM 35.6°F2.0°C 24.2°F-4.3°C 63% 2.0 mph ENE3.2 kmh ENE 6.0 mph9.7 kmh 29.51 in999.3 mb 0.00 in0.0 mm 0.00 in0.0 mm 0.00 in0.0 mm
12:30 AM 35.2°F1.8°C 23.9°F-4.5°C 63% 3.0 mph E4.8 kmh E 5.0 mph8.0 kmh 29.51 in999.3 mb 0.00 in0.0 mm 0.00 in0.0 mm 0.00 in0.0 mm
12:35 AM 34.9°F1.6°C 23.2°F-4.9°C 62% 3.0 mph E4.8 kmh E 5.0 mph8.0 kmh 29.51 in999.3 mb 0.00 in0.0 mm 0.00 in0.0 mm 0.00 in0.0 mm
12:40 AM 34.9°F1.6°C 23.6°F-4.7°C 63% 2.0 mph E3.2 kmh E 6.0 mph9.7 kmh 29.51 in999.3 mb 0.00 in0.0 mm 0.00 in0.0 mm 0.00 in0.0 mm
12:45 AM 34.6°F1.4°C 22.9°F-5.1°C 62% 2.0 mph E3.2 kmh E 6.0 mph9.7 kmh 29.51 in999.3 mb 0.00 in0.0 mm 0.00 in0.0 mm 0.00 in0.0 mm
12:50 AM 34.4°F1.3°C 23.1°F-4.9°C 63% 3.0 mph E4.8 kmh E 6.0 mph9.7 kmh 29.51 in999.3 mb 0.00 in0.0 mm 0.00 in0.0 mm 0.00 in0.0 mm
12:55 AM 34.7°F1.5°C 23.0°F-5.0°C 62% 3.0 mph E4.8 kmh E 6.0 mph9.7 kmh 29.51 in999.3 mb 0.00 in0.0 mm 0.00 in0.0 mm 0.00 in0.0 mm
01:00 AM 35.0°F1.7°C 22.9°F-5.1°C 61% 2.0 mph E3.2 kmh E 6.0 mph9.7 kmh 29.52 in999.7 mb 0.00 in0.0 mm 0.00 in0.0 mm 0.00 in0.0 mm
01:05 AM 35.1°F1.7°C 23.4°F-4.8°C 62% 1.0 mph E1.6 kmh E 4.0 mph6.4 kmh 29.52 in999.7 mb 0.00 in0.0 mm 0.00 in0.0 mm 0.00 in0.0 mm
01:10 AM 35.1°F1.7°C 23.4°F-4.8°C 62% 2.0 mph E3.2 kmh E 5.0 mph8.0 kmh 29.52 in999.7 mb 0.00 in0.0 mm 0.00 in0.0 mm 0.00 in0.0 mm
01:15 AM 35.1°F1.7°C 23.8°F-4.6°C 63% 2.0 mph E3.2 kmh E 6.0 mph9.7 kmh 29.52 in999.7 mb 0.00 in0.0 mm 0.00 in0.0 mm 0.00 in0.0 mm
01:20 AM 34.8°F1.6°C 23.1°F-4.9°C 62% 2.0 mph E3.2 kmh E 6.0 mph9.7 kmh 29.52 in999.7 mb 0.00 in0.0 mm 0.00 in0.0 mm 0.00 in0.0 mm
01:25 AM 34.8°F1.6°C 22.3°F-5.4°C 60% 2.0 mph E3.2 kmh E 5.0 mph8.0 kmh 29.52 in999.7 mb 0.00 in0.0 mm 0.00 in0.0 mm 0.00 in0.0 mm
01:30 AM 35.0°F1.7°C 22.5°F-5.3°C 60% 2.0 mph E3.2 kmh E 5.0 mph8.0 kmh 29.52 in999.7 mb 0.00 in0.0 mm 0.00 in0.0 mm 0.00 in0.0 mm
01:35 AM 34.9°F1.6°C 23.6°F-4.7°C 63% 2.0 mph E3.2 kmh E 5.0 mph8.0 kmh 29.52 in999.7 mb 0.00 in0.0 mm 0.00 in0.0 mm 0.00 in0.0 mm
01:40 AM 34.4°F1.3°C 23.8°F-4.6°C 65% 2.0 mph E3.2 kmh E 5.0 mph8.0 kmh 29.52 in999.7 mb 0.00 in0.0 mm 0.00 in0.0 mm 0.00 in0.0 mm
01:45 AM 34.1°F1.2°C 23.9°F-4.5°C 66% 3.0 mph E4.8 kmh E 5.0 mph8.0 kmh 29.52 in999.7 mb 0.00 in0.0 mm 0.00 in0.0 mm 0.00 in0.0 mm
01:50 AM 33.5°F0.8°C 22.6°F-5.2°C 64% 3.0 mph E4.8 kmh E 5.0 mph8.0 kmh 29.52 in999.7 mb 0.00 in0.0 mm 0.00 in0.0 mm 0.00 in0.0 mm
01:55 AM 33.3°F0.7°C 22.4°F-5.3°C 64% 2.0 mph E3.2 kmh E 5.0 mph8.0 kmh 29.52 in999.7 mb 0.00 in0.0 mm 0.00 in0.0 mm 0.00 in0.0 mm
02:00 AM 33.1°F0.6°C 23.7°F-4.6°C 68% 2.0 mph E3.2 kmh E 5.0 mph8.0 kmh 29.52 in999.7 mb 0.00 in0.0 mm 0.00 in0.0 mm 0.00 in0.0 mm
02:05 AM 32.9°F0.5°C 23.1°F-4.9°C 67% 2.0 mph E3.2 kmh E 6.0 mph9.7 kmh 29.52 in999.7 mb 0.00 in0.0 mm 0.00 in0.0 mm 0.00 in0.0 mm
02:10 AM 33.0°F0.6°C 23.2°F-4.9°C 67% 2.0 mph E3.2 kmh E 6.0 mph9.7 kmh 29.52 in999.7 mb 0.00 in0.0 mm 0.00 in0.0 mm 0.00 in0.0 mm
02:15 AM 33.2°F0.7°C 23.1°F-4.9°C 66% 3.0 mph E4.8 kmh E 6.0 mph9.7 kmh 29.51 in999.3 mb 0.00 in0.0 mm 0.00 in0.0 mm 0.00 in0.0 mm
02:20 AM 33.4°F0.8°C 23.3°F-4.8°C 66% 3.0 mph E4.8 kmh E 6.0 mph9.7 kmh 29.52 in999.7 mb 0.00 in0.0 mm 0.00 in0.0 mm 0.00 in0.0 mm
02:25 AM 33.5°F0.8°C 23.7°F-4.6°C 67% 2.0 mph E3.2 kmh E 5.0 mph8.0 kmh 29.51 in999.3 mb 0.00 in0.0 mm 0.00 in0.0 mm 0.00 in0.0 mm
02:30 AM 33.6°F0.9°C 23.4°F-4.8°C 66% 2.0 mph E3.2 kmh E 5.0 mph8.0 kmh 29.52 in999.7 mb 0.00 in0.0 mm 0.00 in0.0 mm 0.00 in0.0 mm
02:35 AM 33.5°F0.8°C 24.1°F-4.4°C 68% 1.0 mph E1.6 kmh E 5.0 mph8.0 kmh 29.52 in999.7 mb 0.00 in0.0 mm 0.00 in0.0 mm 0.00 in0.0 mm
02:40 AM 33.2°F0.7°C 23.1°F-4.9°C 66% 1.0 mph E1.6 kmh E 5.0 mph8.0 kmh 29.52 in999.7 mb 0.00 in0.0 mm 0.00 in0.0 mm 0.00 in0.0 mm
02:45 AM 32.8°F0.4°C 23.4°F-4.8°C 68% 1.0 mph E1.6 kmh E 5.0 mph8.0 kmh 29.52 in999.7 mb 0.00 in0.0 mm 0.00 in0.0 mm 0.00 in0.0 mm
02:50 AM 32.5°F0.3°C 23.5°F-4.7°C 69% 1.0 mph E1.6 kmh E 3.0 mph4.8 kmh 29.52 in999.7 mb 0.00 in0.0 mm 0.00 in0.0 mm 0.00 in0.0 mm
02:55 AM 32.3°F0.2°C 23.6°F-4.7°C 70% 1.0 mph E1.6 kmh E 3.0 mph4.8 kmh 29.52 in999.7 mb 0.00 in0.0 mm 0.00 in0.0 mm 0.00 in0.0 mm
03:00 AM 32.1°F0.1°C 24.4°F-4.2°C 73% 1.0 mph E1.6 kmh E 4.0 mph6.4 kmh 29.51 in999.3 mb 0.00 in0.0 mm 0.00 in0.0 mm 0.00 in0.0 mm
03:05 AM 31.9°F-0.1°C 24.6°F-4.1°C 74% 1.0 mph E1.6 kmh E 4.0 mph6.4 kmh 29.51 in999.3 mb 0.00 in0.0 mm 0.00 in0.0 mm 0.00 in0.0 mm
03:10 AM 31.8°F-0.1°C 24.1°F-4.4°C 73% 1.0 mph E1.6 kmh E 4.0 mph6.4 kmh 29.52 in999.7 mb 0.00 in0.0 mm 0.00 in0.0 mm 0.00 in0.0 mm
03:15 AM 31.6°F-0.2°C 24.9°F-3.9°C 76% 1.0 mph E1.6 kmh E 4.0 mph6.4 kmh 29.52 in999.7 mb 0.00 in0.0 mm 0.00 in0.0 mm 0.00 in0.0 mm
03:20 AM 31.4°F-0.3°C 24.4°F-4.2°C 75% 1.0 mph E1.6 kmh E 3.0 mph4.8 kmh 29.52 in999.7 mb 0.00 in0.0 mm 0.00 in0.0 mm 0.00 in0.0 mm
03:25 AM 31.2°F-0.4°C 24.2°F-4.3°C 75% 1.0 mph ENE1.6 kmh ENE 3.0 mph4.8 kmh 29.52 in999.7 mb 0.00 in0.0 mm 0.00 in0.0 mm 0.00 in0.0 mm
03:30 AM 31.0°F-0.6°C 23.7°F-4.6°C 74% 1.0 mph ENE1.6 kmh ENE 2.0 mph3.2 kmh 29.52 in999.7 mb 0.00 in0.0 mm 0.00 in0.0 mm 0.00 in0.0 mm
03:35 AM 30.7°F-0.7°C 23.7°F-4.6°C 75% 1.0 mph ENE1.6 kmh ENE 2.0 mph3.2 kmh 29.52 in999.7 mb 0.00 in0.0 mm 0.00 in0.0 mm 0.00 in0.0 mm
03:40 AM 30.5°F-0.8°C 23.5°F-4.7°C 75% Calm Calm 2.0 mph3.2 kmh 29.52 in999.7 mb 0.00 in0.0 mm 0.00 in0.0 mm 0.00 in0.0 mm
03:45 AM 30.2°F-1.0°C 23.2°F-4.9°C 75% Calm Calm 2.0 mph3.2 kmh 29.52 in999.7 mb 0.00 in0.0 mm 0.00 in0.0 mm 0.00 in0.0 mm
03:50 AM 30.0°F-1.1°C 23.7°F-4.6°C 77% Calm Calm 2.0 mph3.2 kmh 29.52 in999.7 mb 0.00 in0.0 mm 0.00 in0.0 mm 0.00 in0.0 mm
03:55 AM 29.7°F-1.3°C 23.1°F-4.9°C 76% Calm Calm 2.0 mph3.2 kmh 29.52 in999.7 mb 0.00 in0.0 mm 0.00 in0.0 mm 0.00 in0.0 mm
04:00 AM 29.5°F-1.4°C 22.9°F-5.1°C 76% 1.0 mph ENE1.6 kmh ENE 2.0 mph3.2 kmh 29.52 in999.7 mb 0.00 in0.0 mm 0.00 in0.0 mm 0.00 in0.0 mm
04:05 AM 29.3°F-1.5°C 22.7°F-5.2°C 76% 1.0 mph NE1.6 kmh NE 4.0 mph6.4 kmh 29.52 in999.7 mb 0.00 in0.0 mm 0.00 in0.0 mm 0.00 in0.0 mm
04:10 AM 29.1°F-1.6°C 22.8°F-5.1°C 77% 1.0 mph N1.6 kmh N 4.0 mph6.4 kmh 29.52 in999.7 mb 0.00 in0.0 mm 0.00 in0.0 mm 0.00 in0.0 mm
04:15 AM 29.0°F-1.7°C 22.7°F-5.2°C 77% Calm Calm 3.0 mph4.8 kmh 29.52 in999.7 mb 0.00 in0.0 mm 0.00 in0.0 mm 0.00 in0.0 mm
04:20 AM 28.8°F-1.8°C 23.1°F-4.9°C 79% 1.0 mph NNE1.6 kmh NNE 4.0 mph6.4 kmh 29.52 in999.7 mb 0.00 in0.0 mm 0.00 in0.0 mm 0.00 in0.0 mm
04:25 AM 28.7°F-1.8°C 23.0°F-5.0°C 79% 1.0 mph NNE1.6 kmh NNE 4.0 mph6.4 kmh 29.52 in999.7 mb 0.00 in0.0 mm 0.00 in0.0 mm 0.00 in0.0 mm
04:30 AM 28.7°F-1.8°C 23.0°F-5.0°C 79% Calm Calm 2.0 mph3.2 kmh 29.52 in999.7 mb 0.00 in0.0 mm 0.00 in0.0 mm 0.00 in0.0 mm
04:35 AM 28.6°F-1.9°C 22.9°F-5.1°C 79% 1.0 mph NNE1.6 kmh NNE 3.0 mph4.8 kmh 29.52 in999.7 mb 0.00 in0.0 mm 0.00 in0.0 mm 0.00 in0.0 mm
04:40 AM 28.5°F-1.9°C 22.8°F-5.1°C 79% 1.0 mph NNE1.6 kmh NNE 3.0 mph4.8 kmh 29.52 in999.7 mb 0.00 in0.0 mm 0.00 in0.0 mm 0.00 in0.0 mm
04:45 AM 28.6°F-1.9°C 23.2°F-4.9°C 80% Calm Calm 3.0 mph4.8 kmh 29.52 in999.7 mb 0.00 in0.0 mm 0.00 in0.0 mm 0.00 in0.0 mm
04:50 AM 28.6°F-1.9°C 23.2°F-4.9°C 80% 1.0 mph NNE1.6 kmh NNE 3.0 mph4.8 kmh 29.52 in999.7 mb 0.00 in0.0 mm 0.00 in0.0 mm 0.00 in0.0 mm
04:55 AM 28.7°F-1.8°C 23.6°F-4.7°C 81% Calm Calm 2.0 mph3.2 kmh 29.52 in999.7 mb 0.00 in0.0 mm 0.00 in0.0 mm 0.00 in0.0 mm
05:00 AM 28.7°F-1.8°C 23.3°F-4.8°C 80% Calm Calm 2.0 mph3.2 kmh 29.52 in999.7 mb 0.00 in0.0 mm 0.00 in0.0 mm 0.00 in0.0 mm
05:05 AM 28.7°F-1.8°C 23.0°F-5.0°C 79% Calm Calm 2.0 mph3.2 kmh 29.52 in999.7 mb 0.00 in0.0 mm 0.00 in0.0 mm 0.00 in0.0 mm
05:10 AM 28.6°F-1.9°C 22.9°F-5.1°C 79% Calm Calm 2.0 mph3.2 kmh 29.52 in999.7 mb 0.00 in0.0 mm 0.00 in0.0 mm 0.00 in0.0 mm
05:15 AM 28.6°F-1.9°C 22.9°F-5.1°C 79% Calm Calm 1.0 mph1.6 kmh 29.52 in999.7 mb 0.00 in0.0 mm 0.00 in0.0 mm 0.00 in0.0 mm
05:20 AM 28.6°F-1.9°C 23.2°F-4.9°C 80% Calm Calm 1.0 mph1.6 kmh 29.52 in999.7 mb 0.00 in0.0 mm 0.00 in0.0 mm 0.00 in0.0 mm
05:25 AM 28.7°F-1.8°C 23.3°F-4.8°C 80% Calm Calm 2.0 mph3.2 kmh 29.52 in999.7 mb 0.00 in0.0 mm 0.00 in0.0 mm 0.00 in0.0 mm
05:30 AM 28.7°F-1.8°C 23.3°F-4.8°C 80% Calm Calm 2.0 mph3.2 kmh 29.52 in999.7 mb 0.00 in0.0 mm 0.00 in0.0 mm 0.00 in0.0 mm
05:35 AM 28.7°F-1.8°C 23.3°F-4.8°C 80% Calm Calm 1.0 mph1.6 kmh 29.52 in999.7 mb 0.00 in0.0 mm 0.00 in0.0 mm 0.00 in0.0 mm
05:40 AM 28.7°F-1.8°C 23.3°F-4.8°C 80% Calm Calm 1.0 mph1.6 kmh 29.52 in999.7 mb 0.00 in0.0 mm 0.00 in0.0 mm 0.00 in0.0 mm
05:45 AM 28.7°F-1.8°C 23.6°F-4.7°C 81% Calm Calm 1.0 mph1.6 kmh 29.52 in999.7 mb 0.00 in0.0 mm 0.00 in0.0 mm 0.00 in0.0 mm
05:50 AM 28.7°F-1.8°C 23.6°F-4.7°C 81% Calm Calm 1.0 mph1.6 kmh 29.52 in999.7 mb 0.00 in0.0 mm 0.00 in0.0 mm 0.00 in0.0 mm
05:55 AM 28.8°F-1.8°C 24.0°F-4.4°C 82% Calm Calm 1.0 mph1.6 kmh 29.52 in999.7 mb 0.00 in0.0 mm 0.00 in0.0 mm 0.00 in0.0 mm
06:00 AM 28.8°F-1.8°C 24.0°F-4.4°C 82% Calm Calm -- 29.52 in999.7 mb 0.00 in0.0 mm 0.00 in0.0 mm 0.00 in0.0 mm
06:05 AM 28.8°F-1.8°C 23.7°F-4.6°C 81% Calm Calm -- 29.52 in999.7 mb 0.00 in0.0 mm 0.00 in0.0 mm 0.00 in0.0 mm
06:10 AM 28.9°F-1.7°C 23.8°F-4.6°C 81% Calm Calm 1.0 mph1.6 kmh 29.52 in999.7 mb 0.00 in0.0 mm 0.00 in0.0 mm 0.00 in0.0 mm
06:15 AM 29.2°F-1.6°C 24.4°F-4.2°C 82% Calm Calm 1.0 mph1.6 kmh 29.52 in999.7 mb 0.00 in0.0 mm 0.00 in0.0 mm 0.00 in0.0 mm
06:20 AM 29.4°F-1.4°C 24.6°F-4.1°C 82% Calm Calm 1.0 mph1.6 kmh 29.52 in999.7 mb 0.00 in0.0 mm 0.00 in0.0 mm 0.00 in0.0 mm
06:25 AM 29.7°F-1.3°C 24.9°F-3.9°C 82% Calm Calm 2.0 mph3.2 kmh 29.53 in1000.0 mb 0.00 in0.0 mm 0.00 in0.0 mm 0.00 in0.0 mm
06:30 AM 30.1°F-1.1°C 25.3°F-3.7°C 82% Calm Calm 2.0 mph3.2 kmh 29.53 in1000.0 mb 0.00 in0.0 mm 0.00 in0.0 mm 0.00 in0.0 mm
06:35 AM 30.6°F-0.8°C 25.8°F-3.4°C 82% Calm Calm 2.0 mph3.2 kmh 29.52 in999.7 mb 0.00 in0.0 mm 0.00 in0.0 mm 0.00 in0.0 mm
06:40 AM 31.1°F-0.5°C 26.2°F-3.2°C 82% Calm Calm 2.0 mph3.2 kmh 29.52 in999.7 mb 0.00 in0.0 mm 0.00 in0.0 mm 0.00 in0.0 mm
06:45 AM 31.7°F-0.2°C 26.8°F-2.9°C 82% Calm Calm 2.0 mph3.2 kmh 29.52 in999.7 mb 0.00 in0.0 mm 0.00 in0.0 mm 0.00 in0.0 mm
06:50 AM 32.6°F0.3°C 27.7°F-2.4°C 82% 1.0 mph NNE1.6 kmh NNE 3.0 mph4.8 kmh 29.52 in999.7 mb 0.00 in0.0 mm 0.00 in0.0 mm 0.00 in0.0 mm
06:55 AM 33.8°F1.0°C 26.4°F-3.1°C 74% 2.0 mph NE3.2 kmh NE 4.0 mph6.4 kmh 29.52 in999.7 mb 0.00 in0.0 mm 0.00 in0.0 mm 0.00 in0.0 mm
07:00 AM 35.1°F1.7°C 27.3°F-2.6°C 73% 2.0 mph NE3.2 kmh NE 4.0 mph6.4 kmh 29.52 in999.7 mb 0.00 in0.0 mm 0.00 in0.0 mm 0.00 in0.0 mm
07:05 AM 35.8°F2.1°C 27.3°F-2.6°C 71% 1.0 mph ENE1.6 kmh ENE 4.0 mph6.4 kmh 29.52 in999.7 mb 0.00 in0.0 mm 0.00 in0.0 mm 0.00 in0.0 mm
07:10 AM 36.3°F2.4°C 26.4°F-3.1°C 67% Calm Calm 2.0 mph3.2 kmh 29.52 in999.7 mb 0.00 in0.0 mm 0.00 in0.0 mm 0.00 in0.0 mm
07:15 AM 36.8°F2.7°C 26.1°F-3.3°C 65% 1.0 mph ENE1.6 kmh ENE 2.0 mph3.2 kmh 29.52 in999.7 mb 0.00 in0.0 mm 0.00 in0.0 mm 0.00 in0.0 mm
07:20 AM 37.3°F2.9°C 26.2°F-3.2°C 64% Calm Calm 2.0 mph3.2 kmh 29.52 in999.7 mb 0.00 in0.0 mm 0.00 in0.0 mm 0.00 in0.0 mm
07:25 AM 37.6°F3.1°C 25.0°F-3.9°C 60% Calm Calm 2.0 mph3.2 kmh 29.52 in999.7 mb 0.00 in0.0 mm 0.00 in0.0 mm 0.00 in0.0 mm
07:30 AM 38.0°F3.3°C 25.3°F-3.7°C 60% Calm Calm 2.0 mph3.2 kmh 29.52 in999.7 mb 0.00 in0.0 mm 0.00 in0.0 mm 0.00 in0.0 mm
07:35 AM 38.3°F3.5°C 25.6°F-3.6°C 60% Calm Calm 2.0 mph3.2 kmh 29.52 in999.7 mb 0.00 in0.0 mm 0.00 in0.0 mm 0.00 in0.0 mm
07:40 AM 38.5°F3.6°C 24.6°F-4.1°C 57% Calm Calm 1.0 mph1.6 kmh 29.52 in999.7 mb 0.00 in0.0 mm 0.00 in0.0 mm 0.00 in0.0 mm
07:45 AM 38.7°F3.7°C 25.2°F-3.8°C 58% Calm Calm 2.0 mph3.2 kmh 29.52 in999.7 mb 0.00 in0.0 mm 0.00 in0.0 mm 0.00 in0.0 mm
07:50 AM 38.9°F3.8°C 25.4°F-3.7°C 58% Calm Calm 2.0 mph3.2 kmh 29.52 in999.7 mb 0.00 in0.0 mm 0.00 in0.0 mm 0.00 in0.0 mm
07:55 AM 39.0°F3.9°C 25.0°F-3.9°C 57% Calm Calm 2.0 mph3.2 kmh 29.52 in999.7 mb 0.00 in0.0 mm 0.00 in0.0 mm 0.00 in0.0 mm
08:00 AM 39.1°F3.9°C 25.6°F-3.6°C 58% 1.0 mph ENE1.6 kmh ENE 4.0 mph6.4 kmh 29.52 in999.7 mb 0.00 in0.0 mm 0.00 in0.0 mm 0.00 in0.0 mm
08:05 AM 39.2°F4.0°C 25.6°F-3.6°C 58% 1.0 mph ENE1.6 kmh ENE 4.0 mph6.4 kmh 29.52 in999.7 mb 0.00 in0.0 mm 0.00 in0.0 mm 0.00 in0.0 mm
08:10 AM 39.3°F4.1°C 25.7°F-3.5°C 58% 1.0 mph ENE1.6 kmh ENE 5.0 mph8.0 kmh 29.52 in999.7 mb 0.00 in0.0 mm 0.00 in0.0 mm 0.00 in0.0 mm
08:15 AM 39.6°F4.2°C 25.2°F-3.8°C 56% 1.0 mph NE1.6 kmh NE 5.0 mph8.0 kmh 29.51 in999.3 mb 0.00 in0.0 mm 0.00 in0.0 mm 0.00 in0.0 mm
08:20 AM 40.3°F4.6°C 24.5°F-4.2°C 53% 1.0 mph ENE1.6 kmh ENE 5.0 mph8.0 kmh 29.51 in999.3 mb 0.00 in0.0 mm 0.00 in0.0 mm 0.00 in0.0 mm
08:25 AM 41.1°F5.1°C 24.8°F-4.0°C 52% 1.0 mph ENE1.6 kmh ENE 5.0 mph8.0 kmh 29.51 in999.3 mb 0.00 in0.0 mm 0.00 in0.0 mm 0.00 in0.0 mm
08:30 AM 42.0°F5.6°C 23.7°F-4.6°C 48% 2.0 mph E3.2 kmh E 5.0 mph8.0 kmh 29.51 in999.3 mb 0.00 in0.0 mm 0.00 in0.0 mm 0.00 in0.0 mm
08:35 AM 42.7°F5.9°C 23.3°F-4.8°C 46% 1.0 mph E1.6 kmh E 5.0 mph8.0 kmh 29.50 in999.0 mb 0.00 in0.0 mm 0.00 in0.0 mm 0.00 in0.0 mm
08:40 AM 43.1°F6.2°C 26.7°F-2.9°C 52% 1.0 mph NE1.6 kmh NE 4.0 mph6.4 kmh 29.50 in999.0 mb 0.00 in0.0 mm 0.00 in0.0 mm 0.00 in0.0 mm
08:45 AM 43.5°F6.4°C 25.1°F-3.8°C 48% 1.0 mph NNE1.6 kmh NNE 6.0 mph9.7 kmh 29.50 in999.0 mb 0.00 in0.0 mm 0.00 in0.0 mm 0.00 in0.0 mm
08:50 AM 43.9°F6.6°C 24.4°F-4.2°C 46% 2.0 mph NE3.2 kmh NE 6.0 mph9.7 kmh 29.50 in999.0 mb 0.00 in0.0 mm 0.00 in0.0 mm 0.00 in0.0 mm
08:55 AM 44.2°F6.8°C 23.1°F-4.9°C 43% 2.0 mph E3.2 kmh E 5.0 mph8.0 kmh 29.50 in999.0 mb 0.00 in0.0 mm 0.00 in0.0 mm 0.00 in0.0 mm
09:00 AM 44.4°F6.9°C 23.8°F-4.6°C 44% 1.0 mph ENE1.6 kmh ENE 5.0 mph8.0 kmh 29.50 in999.0 mb 0.00 in0.0 mm 0.00 in0.0 mm 0.00 in0.0 mm
09:05 AM 44.6°F7.0°C 24.5°F-4.2°C 45% 1.0 mph NE1.6 kmh NE 4.0 mph6.4 kmh 29.50 in999.0 mb 0.00 in0.0 mm 0.00 in0.0 mm 0.00 in0.0 mm
09:10 AM 44.7°F7.1°C 24.6°F-4.1°C 45% 1.0 mph NE1.6 kmh NE 4.0 mph6.4 kmh 29.50 in999.0 mb 0.00 in0.0 mm 0.00 in0.0 mm 0.00 in0.0 mm
09:15 AM 44.9°F7.2°C 23.2°F-4.9°C 42% Calm Calm 3.0 mph4.8 kmh 29.50 in999.0 mb 0.00 in0.0 mm 0.00 in0.0 mm 0.00 in0.0 mm
09:20 AM 45.0°F7.2°C 22.1°F-5.5°C 40% Calm Calm 3.0 mph4.8 kmh 29.50 in999.0 mb 0.00 in0.0 mm 0.00 in0.0 mm 0.00 in0.0 mm
09:25 AM 45.2°F7.3°C 24.6°F-4.1°C 44% 1.0 mph ENE1.6 kmh ENE 4.0 mph6.4 kmh 29.50 in999.0 mb 0.00 in0.0 mm 0.00 in0.0 mm 0.00 in0.0 mm
09:30 AM 45.3°F7.4°C 23.5°F-4.7°C 42% 1.0 mph NE1.6 kmh NE 6.0 mph9.7 kmh 29.49 in998.6 mb 0.00 in0.0 mm 0.00 in0.0 mm 0.00 in0.0 mm
09:35 AM 45.5°F7.5°C 24.3°F-4.3°C 43% 2.0 mph NE3.2 kmh NE 6.0 mph9.7 kmh 29.49 in998.6 mb 0.00 in0.0 mm 0.00 in0.0 mm 0.00 in0.0 mm
09:40 AM 45.5°F7.5°C 23.7°F-4.6°C 42% 2.0 mph NE3.2 kmh NE 7.0 mph11.3 kmh 29.49 in998.6 mb 0.00 in0.0 mm 0.00 in0.0 mm 0.00 in0.0 mm
09:45 AM 45.7°F7.6°C 25.5°F-3.6°C 45% 1.0 mph NE1.6 kmh NE 7.0 mph11.3 kmh 29.49 in998.6 mb 0.00 in0.0 mm 0.00 in0.0 mm 0.00 in0.0 mm
09:50 AM 45.8°F7.7°C 25.6°F-3.6°C 45% 1.0 mph NE1.6 kmh NE 5.0 mph8.0 kmh 29.49 in998.6 mb 0.00 in0.0 mm 0.00 in0.0 mm 0.00 in0.0 mm
09:55 AM 46.0°F7.8°C 23.6°F-4.7°C 41% 1.0 mph NE1.6 kmh NE 5.0 mph8.0 kmh 29.49 in998.6 mb 0.00 in0.0 mm 0.00 in0.0 mm 0.00 in0.0 mm
10:00 AM 46.2°F7.9°C 23.8°F-4.6°C 41% 1.0 mph NE1.6 kmh NE 5.0 mph8.0 kmh 29.49 in998.6 mb 0.00 in0.0 mm 0.00 in0.0 mm 0.00 in0.0 mm
10:05 AM 46.5°F8.1°C 22.2°F-5.4°C 38% 1.0 mph NE1.6 kmh NE 4.0 mph6.4 kmh 29.49 in998.6 mb 0.00 in0.0 mm 0.00 in0.0 mm 0.00 in0.0 mm
10:10 AM 46.9°F8.3°C 23.2°F-4.9°C 39% 1.0 mph NE1.6 kmh NE 4.0 mph6.4 kmh 29.49 in998.6 mb 0.00 in0.0 mm 0.00 in0.0 mm 0.00 in0.0 mm
10:15 AM 47.3°F8.5°C 25.9°F-3.4°C 43% Calm Calm 3.0 mph4.8 kmh 29.48 in998.3 mb 0.00 in0.0 mm 0.00 in0.0 mm 0.00 in0.0 mm
10:20 AM 47.6°F8.7°C 25.0°F-3.9°C 41% 1.0 mph NW1.6 kmh NW 3.0 mph4.8 kmh 29.48 in998.3 mb 0.00 in0.0 mm 0.00 in0.0 mm 0.00 in0.0 mm
10:25 AM 47.9°F8.8°C 22.2°F-5.4°C 36% 1.0 mph NW1.6 kmh NW 2.0 mph3.2 kmh 29.48 in998.3 mb 0.00 in0.0 mm 0.00 in0.0 mm 0.00 in0.0 mm
10:30 AM 48.5°F9.2°C 23.4°F-4.8°C 37% 1.0 mph WNW1.6 kmh WNW 4.0 mph6.4 kmh 29.48 in998.3 mb 0.00 in0.0 mm 0.00 in0.0 mm 0.00 in0.0 mm
10:35 AM 49.1°F9.5°C 22.6°F-5.2°C 35% 1.0 mph W1.6 kmh W 4.0 mph6.4 kmh 29.48 in998.3 mb 0.00 in0.0 mm 0.00 in0.0 mm 0.00 in0.0 mm
10:40 AM 49.4°F9.7°C 23.5°F-4.7°C 36% 1.0 mph W1.6 kmh W 3.0 mph4.8 kmh 29.48 in998.3 mb 0.00 in0.0 mm 0.00 in0.0 mm 0.00 in0.0 mm
10:45 AM 49.7°F9.8°C 22.4°F-5.3°C 34% Calm Calm 3.0 mph4.8 kmh 29.48 in998.3 mb 0.00 in0.0 mm 0.00 in0.0 mm 0.00 in0.0 mm
10:50 AM 50.0°F10.0°C 21.3°F-5.9°C 32% 1.0 mph W1.6 kmh W 3.0 mph4.8 kmh 29.48 in998.3 mb 0.00 in0.0 mm 0.00 in0.0 mm 0.00 in0.0 mm
10:55 AM 50.2°F10.1°C 21.4°F-5.9°C 32% 1.0 mph W1.6 kmh W 4.0 mph6.4 kmh 29.47 in998.0 mb 0.00 in0.0 mm 0.00 in0.0 mm 0.00 in0.0 mm
11:00 AM 50.6°F10.3°C 22.5°F-5.3°C 33% 1.0 mph W1.6 kmh W 4.0 mph6.4 kmh 29.47 in998.0 mb 0.00 in0.0 mm 0.00 in0.0 mm 0.00 in0.0 mm
11:05 AM 50.8°F10.4°C 22.0°F-5.6°C 32% 1.0 mph W1.6 kmh W 4.0 mph6.4 kmh 29.47 in998.0 mb 0.00 in0.0 mm 0.00 in0.0 mm 0.00 in0.0 mm
11:10 AM 50.7°F10.4°C 23.3°F-4.8°C 34% 1.0 mph NW1.6 kmh NW 4.0 mph6.4 kmh 29.47 in998.0 mb 0.00 in0.0 mm 0.00 in0.0 mm 0.00 in0.0 mm
11:15 AM 50.5°F10.3°C 23.8°F-4.6°C 35% 1.0 mph NNW1.6 kmh NNW 4.0 mph6.4 kmh 29.47 in998.0 mb 0.00 in0.0 mm 0.00 in0.0 mm 0.00 in0.0 mm
11:20 AM 50.0°F10.0°C 20.5°F-6.4°C 31% Calm Calm 4.0 mph6.4 kmh 29.47 in998.0 mb 0.00 in0.0 mm 0.00 in0.0 mm 0.00 in0.0 mm
11:25 AM 49.8°F9.9°C 21.1°F-6.1°C 32% 1.0 mph ENE1.6 kmh ENE 4.0 mph6.4 kmh 29.47 in998.0 mb 0.00 in0.0 mm 0.00 in0.0 mm 0.00 in0.0 mm
11:30 AM 49.7°F9.8°C 22.4°F-5.3°C 34% 1.0 mph ENE1.6 kmh ENE 4.0 mph6.4 kmh 29.47 in998.0 mb 0.00 in0.0 mm 0.00 in0.0 mm 0.00 in0.0 mm
11:35 AM 49.9°F9.9°C 23.3°F-4.8°C 35% 1.0 mph ENE1.6 kmh ENE 4.0 mph6.4 kmh 29.47 in998.0 mb 0.00 in0.0 mm 0.00 in0.0 mm 0.00 in0.0 mm
11:40 AM 50.2°F10.1°C 20.7°F-6.3°C 31% 1.0 mph ENE1.6 kmh ENE 3.0 mph4.8 kmh 29.47 in998.0 mb 0.00 in0.0 mm 0.00 in0.0 mm 0.00 in0.0 mm
11:45 AM 50.5°F10.3°C 21.7°F-5.7°C 32% 1.0 mph NE1.6 kmh NE 3.0 mph4.8 kmh 29.47 in998.0 mb 0.00 in0.0 mm 0.00 in0.0 mm 0.00 in0.0 mm
11:50 AM 50.6°F10.3°C 21.0°F-6.1°C 31% 1.0 mph NNE1.6 kmh NNE 2.0 mph3.2 kmh 29.47 in998.0 mb 0.00 in0.0 mm 0.00 in0.0 mm 0.00 in0.0 mm
11:55 AM 50.7°F10.4°C 23.3°F-4.8°C 34% Calm Calm 2.0 mph3.2 kmh 29.47 in998.0 mb 0.00 in0.0 mm 0.00 in0.0 mm 0.00 in0.0 mm
12:00 PM 50.7°F10.4°C 21.1°F-6.1°C 31% 1.0 mph ENE1.6 kmh ENE 5.0 mph8.0 kmh 29.47 in998.0 mb 0.00 in0.0 mm 0.00 in0.0 mm 0.00 in0.0 mm
12:05 PM 50.7°F10.4°C 21.9°F-5.6°C 32% 1.0 mph E1.6 kmh E 5.0 mph8.0 kmh 29.47 in998.0 mb 0.00 in0.0 mm 0.00 in0.0 mm 0.00 in0.0 mm
12:10 PM 50.8°F10.4°C 21.2°F-6.0°C 31% Calm Calm 4.0 mph6.4 kmh 29.47 in998.0 mb 0.00 in0.0 mm 0.00 in0.0 mm 0.00 in0.0 mm
12:15 PM 50.8°F10.4°C 22.7°F-5.2°C 33% Calm Calm 4.0 mph6.4 kmh 29.47 in998.0 mb 0.00 in0.0 mm 0.00 in0.0 mm 0.00 in0.0 mm
12:20 PM 50.6°F10.3°C 21.0°F-6.1°C 31% 1.0 mph E1.6 kmh E 4.0 mph6.4 kmh 29.47 in998.0 mb 0.00 in0.0 mm 0.00 in0.0 mm 0.00 in0.0 mm
12:25 PM 50.6°F10.3°C 20.3°F-6.5°C 30% 1.0 mph E1.6 kmh E 3.0 mph4.8 kmh 29.47 in998.0 mb 0.00 in0.0 mm 0.00 in0.0 mm 0.00 in0.0 mm
12:30 PM 50.6°F10.3°C 22.5°F-5.3°C 33% Calm Calm 3.0 mph4.8 kmh 29.47 in998.0 mb 0.00 in0.0 mm 0.00 in0.0 mm 0.00 in0.0 mm
12:35 PM 50.6°F10.3°C 23.2°F-4.9°C 34% 1.0 mph E1.6 kmh E 4.0 mph6.4 kmh 29.46 in997.6 mb 0.00 in0.0 mm 0.00 in0.0 mm 0.00 in0.0 mm
12:40 PM 50.6°F10.3°C 22.5°F-5.3°C 33% 1.0 mph E1.6 kmh E 4.0 mph6.4 kmh 29.46 in997.6 mb 0.00 in0.0 mm 0.00 in0.0 mm 0.00 in0.0 mm
12:45 PM 50.7°F10.4°C 22.6°F-5.2°C 33% 1.0 mph ENE1.6 kmh ENE 5.0 mph8.0 kmh 29.46 in997.6 mb 0.00 in0.0 mm 0.00 in0.0 mm 0.00 in0.0 mm
12:50 PM 50.8°F10.4°C 22.7°F-5.2°C 33% 1.0 mph ENE1.6 kmh ENE 5.0 mph8.0 kmh 29.46 in997.6 mb 0.00 in0.0 mm 0.00 in0.0 mm 0.00 in0.0 mm
12:55 PM 51.0°F10.6°C 21.4°F-5.9°C 31% 1.0 mph NE1.6 kmh NE 5.0 mph8.0 kmh 29.46 in997.6 mb 0.00 in0.0 mm 0.00 in0.0 mm 0.00 in0.0 mm
01:00 PM 51.2°F10.7°C 23.0°F-5.0°C 33% 1.0 mph ENE1.6 kmh ENE 5.0 mph8.0 kmh 29.46 in997.6 mb 0.00 in0.0 mm 0.00 in0.0 mm 0.00 in0.0 mm
01:05 PM 51.2°F10.7°C 23.8°F-4.6°C 34% 1.0 mph ENE1.6 kmh ENE 3.0 mph4.8 kmh 29.46 in997.6 mb 0.00 in0.0 mm 0.00 in0.0 mm 0.00 in0.0 mm
01:10 PM 51.1°F10.6°C 23.0°F-5.0°C 33% 1.0 mph E1.6 kmh E 3.0 mph4.8 kmh 29.46 in997.6 mb 0.00 in0.0 mm 0.00 in0.0 mm 0.00 in0.0 mm
01:15 PM 51.1°F10.6°C 20.7°F-6.3°C 30% Calm Calm 3.0 mph4.8 kmh 29.46 in997.6 mb 0.00 in0.0 mm 0.00 in0.0 mm 0.00 in0.0 mm
01:20 PM 51.1°F10.6°C 24.4°F-4.2°C 35% Calm Calm 4.0 mph6.4 kmh 29.46 in997.6 mb 0.00 in0.0 mm 0.00 in0.0 mm 0.00 in0.0 mm
01:25 PM 51.1°F10.6°C 23.0°F-5.0°C 33% 1.0 mph ENE1.6 kmh ENE 4.0 mph6.4 kmh 29.46 in997.6 mb 0.00 in0.0 mm 0.00 in0.0 mm 0.00 in0.0 mm
01:30 PM 51.1°F10.6°C 21.5°F-5.8°C 31% Calm Calm 4.0 mph6.4 kmh 29.46 in997.6 mb 0.00 in0.0 mm 0.00 in0.0 mm 0.00 in0.0 mm
01:35 PM 51.2°F10.7°C 20.8°F-6.2°C 30% Calm Calm 3.0 mph4.8 kmh 29.46 in997.6 mb 0.00 in0.0 mm 0.00 in0.0 mm 0.00 in0.0 mm
01:40 PM 51.3°F10.7°C 24.5°F-4.2°C 35% Calm Calm 4.0 mph6.4 kmh 29.46 in997.6 mb 0.00 in0.0 mm 0.00 in0.0 mm 0.00 in0.0 mm
01:45 PM 51.3°F10.7°C 23.8°F-4.6°C 34% 1.0 mph WNW1.6 kmh WNW 7.0 mph11.3 kmh 29.46 in997.6 mb 0.00 in0.0 mm 0.00 in0.0 mm 0.00 in0.0 mm
01:50 PM 51.2°F10.7°C 23.0°F-5.0°C 33% 3.0 mph W4.8 kmh W 11.0 mph17.7 kmh 29.46 in997.6 mb 0.00 in0.0 mm 0.00 in0.0 mm 0.00 in0.0 mm
01:55 PM 51.0°F10.6°C 22.9°F-5.1°C 33% 4.0 mph WSW6.4 kmh WSW 11.0 mph17.7 kmh 29.46 in997.6 mb 0.00 in0.0 mm 0.00 in0.0 mm 0.00 in0.0 mm
02:00 PM 51.0°F10.6°C 23.6°F-4.7°C 34% 2.0 mph WSW3.2 kmh WSW 9.0 mph14.5 kmh 29.45 in997.3 mb 0.00 in0.0 mm 0.00 in0.0 mm 0.00 in0.0 mm
02:05 PM 51.1°F10.6°C 23.0°F-5.0°C 33% 2.0 mph WSW3.2 kmh WSW 9.0 mph14.5 kmh 29.45 in997.3 mb 0.00 in0.0 mm 0.00 in0.0 mm 0.00 in0.0 mm
02:10 PM 51.2°F10.7°C 23.8°F-4.6°C 34% 4.0 mph WSW6.4 kmh WSW 11.0 mph17.7 kmh 29.45 in997.3 mb 0.00 in0.0 mm 0.00 in0.0 mm 0.00 in0.0 mm
02:15 PM 51.2°F10.7°C 23.8°F-4.6°C 34% 4.0 mph WSW6.4 kmh WSW 12.0 mph19.3 kmh 29.45 in997.3 mb 0.00 in0.0 mm 0.00 in0.0 mm 0.00 in0.0 mm
02:20 PM 51.3°F10.7°C 22.4°F-5.3°C 32% 4.0 mph WSW6.4 kmh WSW 12.0 mph19.3 kmh 29.45 in997.3 mb 0.00 in0.0 mm 0.00 in0.0 mm 0.00 in0.0 mm
02:25 PM 51.3°F10.7°C 21.6°F-5.8°C 31% 5.0 mph WSW8.0 kmh WSW 12.0 mph19.3 kmh 29.45 in997.3 mb 0.00 in0.0 mm 0.00 in0.0 mm 0.00 in0.0 mm
02:30 PM 51.5°F10.8°C 23.3°F-4.8°C 33% 4.0 mph WSW6.4 kmh WSW 12.0 mph19.3 kmh 29.45 in997.3 mb 0.00 in0.0 mm 0.00 in0.0 mm 0.00 in0.0 mm
02:35 PM 51.5°F10.8°C 22.6°F-5.2°C 32% 5.0 mph WSW8.0 kmh WSW 11.0 mph17.7 kmh 29.45 in997.3 mb 0.00 in0.0 mm 0.00 in0.0 mm 0.00 in0.0 mm
02:40 PM 51.7°F10.9°C 22.8°F-5.1°C 32% 4.0 mph WSW6.4 kmh WSW 11.0 mph17.7 kmh 29.45 in997.3 mb 0.00 in0.0 mm 0.00 in0.0 mm 0.00 in0.0 mm
02:45 PM 51.7°F10.9°C 23.5°F-4.7°C 33% 3.0 mph W4.8 kmh W 11.0 mph17.7 kmh 29.45 in997.3 mb 0.00 in0.0 mm 0.00 in0.0 mm 0.00 in0.0 mm
02:50 PM 51.8°F11.0°C 22.1°F-5.5°C 31% 4.0 mph W6.4 kmh W 12.0 mph19.3 kmh 29.45 in997.3 mb 0.00 in0.0 mm 0.00 in0.0 mm 0.00 in0.0 mm
02:55 PM 51.8°F11.0°C 23.6°F-4.7°C 33% 5.0 mph WSW8.0 kmh WSW 12.0 mph19.3 kmh 29.45 in997.3 mb 0.00 in0.0 mm 0.00 in0.0 mm 0.00 in0.0 mm
03:00 PM 51.9°F11.1°C 22.2°F-5.4°C 31% 5.0 mph WSW8.0 kmh WSW 12.0 mph19.3 kmh 29.45 in997.3 mb 0.00 in0.0 mm 0.00 in0.0 mm 0.00 in0.0 mm
03:05 PM 52.0°F11.1°C 22.3°F-5.4°C 31% 4.0 mph WSW6.4 kmh WSW 12.0 mph19.3 kmh 29.45 in997.3 mb 0.00 in0.0 mm 0.00 in0.0 mm 0.00 in0.0 mm
03:10 PM 51.9°F11.1°C 22.9°F-5.1°C 32% 4.0 mph WSW6.4 kmh WSW 11.0 mph17.7 kmh 29.45 in997.3 mb 0.00 in0.0 mm 0.00 in0.0 mm 0.00 in0.0 mm
03:15 PM 51.6°F10.9°C 23.4°F-4.8°C 33% 5.0 mph WSW8.0 kmh WSW 11.0 mph17.7 kmh 29.45 in997.3 mb 0.00 in0.0 mm 0.00 in0.0 mm 0.00 in0.0 mm
03:20 PM 51.4°F10.8°C 22.5°F-5.3°C 32% 5.0 mph WSW8.0 kmh WSW 14.0 mph22.5 kmh 29.45 in997.3 mb 0.00 in0.0 mm 0.00 in0.0 mm 0.00 in0.0 mm
03:25 PM 51.3°F10.7°C 22.4°F-5.3°C 32% 5.0 mph SW8.0 kmh SW 14.0 mph22.5 kmh 29.45 in997.3 mb 0.00 in0.0 mm 0.00 in0.0 mm 0.00 in0.0 mm
03:30 PM 51.2°F10.7°C 21.6°F-5.8°C 31% 7.0 mph WSW11.3 kmh WSW 13.0 mph20.9 kmh 29.45 in997.3 mb 0.00 in0.0 mm 0.00 in0.0 mm 0.00 in0.0 mm
03:35 PM 51.0°F10.6°C 22.1°F-5.5°C 32% 7.0 mph WSW11.3 kmh WSW 13.0 mph20.9 kmh 29.45 in997.3 mb 0.00 in0.0 mm 0.00 in0.0 mm 0.00 in0.0 mm
03:40 PM 50.9°F10.5°C 22.1°F-5.5°C 32% 5.0 mph WSW8.0 kmh WSW 12.0 mph19.3 kmh 29.45 in997.3 mb 0.00 in0.0 mm 0.00 in0.0 mm 0.00 in0.0 mm
03:45 PM 50.9°F10.5°C 22.1°F-5.5°C 32% 6.0 mph WSW9.7 kmh WSW 13.0 mph20.9 kmh 29.45 in997.3 mb 0.00 in0.0 mm 0.00 in0.0 mm 0.00 in0.0 mm
03:50 PM 51.0°F10.6°C 21.4°F-5.9°C 31% 6.0 mph WSW9.7 kmh WSW 13.0 mph20.9 kmh 29.45 in997.3 mb 0.00 in0.0 mm 0.00 in0.0 mm 0.00 in0.0 mm
03:55 PM 51.2°F10.7°C 23.8°F-4.6°C 34% 6.0 mph WSW9.7 kmh WSW 13.0 mph20.9 kmh 29.45 in997.3 mb 0.00 in0.0 mm 0.00 in0.0 mm 0.00 in0.0 mm
04:00 PM 51.3°F10.7°C 22.4°F-5.3°C 32% 5.0 mph WSW8.0 kmh WSW 13.0 mph20.9 kmh 29.45 in997.3 mb 0.00 in0.0 mm 0.00 in0.0 mm 0.00 in0.0 mm
04:05 PM 51.3°F10.7°C 21.6°F-5.8°C 31% 5.0 mph WSW8.0 kmh WSW 11.0 mph17.7 kmh 29.45 in997.3 mb 0.00 in0.0 mm 0.00 in0.0 mm 0.00 in0.0 mm
04:10 PM 51.4°F10.8°C 21.7°F-5.7°C 31% 7.0 mph WSW11.3 kmh WSW 14.0 mph22.5 kmh 29.45 in997.3 mb 0.00 in0.0 mm 0.00 in0.0 mm 0.00 in0.0 mm
04:15 PM 51.5°F10.8°C 21.8°F-5.7°C 31% 6.0 mph WSW9.7 kmh WSW 14.0 mph22.5 kmh 29.45 in997.3 mb 0.00 in0.0 mm 0.00 in0.0 mm 0.00 in0.0 mm
04:20 PM 51.6°F10.9°C 23.4°F-4.8°C 33% 5.0 mph WSW8.0 kmh WSW 13.0 mph20.9 kmh 29.45 in997.3 mb 0.00 in0.0 mm 0.00 in0.0 mm 0.00 in0.0 mm
04:25 PM 51.5°F10.8°C 21.8°F-5.7°C 31% 4.0 mph WSW6.4 kmh WSW 10.0 mph16.1 kmh 29.45 in997.3 mb 0.00 in0.0 mm 0.00 in0.0 mm 0.00 in0.0 mm
04:30 PM 51.5°F10.8°C 21.8°F-5.7°C 31% 4.0 mph WSW6.4 kmh WSW 11.0 mph17.7 kmh 29.45 in997.3 mb 0.00 in0.0 mm 0.00 in0.0 mm 0.00 in0.0 mm
04:35 PM 51.3°F10.7°C 22.4°F-5.3°C 32% 5.0 mph WSW8.0 kmh WSW 12.0 mph19.3 kmh 29.45 in997.3 mb 0.00 in0.0 mm 0.00 in0.0 mm 0.00 in0.0 mm
04:40 PM 51.2°F10.7°C 22.3°F-5.4°C 32% 5.0 mph W8.0 kmh W 12.0 mph19.3 kmh 29.45 in997.3 mb 0.00 in0.0 mm 0.00 in0.0 mm 0.00 in0.0 mm
04:45 PM 51.0°F10.6°C 22.9°F-5.1°C 33% 5.0 mph WSW8.0 kmh WSW 14.0 mph22.5 kmh 29.45 in997.3 mb 0.00 in0.0 mm 0.00 in0.0 mm 0.00 in0.0 mm
04:50 PM 50.8°F10.4°C 22.0°F-5.6°C 32% 5.0 mph WSW8.0 kmh WSW 14.0 mph22.5 kmh 29.45 in997.3 mb 0.00 in0.0 mm 0.00 in0.0 mm 0.00 in0.0 mm
04:55 PM 50.7°F10.4°C 23.3°F-4.8°C 34% 5.0 mph WSW8.0 kmh WSW 12.0 mph19.3 kmh 29.45 in997.3 mb 0.00 in0.0 mm 0.00 in0.0 mm 0.00 in0.0 mm
05:00 PM 50.5°F10.3°C 25.2°F-3.8°C 37% 7.0 mph WSW11.3 kmh WSW 19.0 mph30.6 kmh 29.45 in997.3 mb 0.00 in0.0 mm 0.00 in0.0 mm 0.00 in0.0 mm
05:05 PM 50.2°F10.1°C 25.5°F-3.6°C 38% 9.0 mph WSW14.5 kmh WSW 19.0 mph30.6 kmh 29.45 in997.3 mb 0.00 in0.0 mm 0.00 in0.0 mm 0.00 in0.0 mm
05:10 PM 49.7°F9.8°C 25.1°F-3.8°C 38% 9.0 mph WSW14.5 kmh WSW 19.0 mph30.6 kmh 29.45 in997.3 mb 0.00 in0.0 mm 0.00 in0.0 mm 0.00 in0.0 mm
05:15 PM 49.3°F9.6°C 25.4°F-3.7°C 39% 9.0 mph W14.5 kmh W 19.0 mph30.6 kmh 29.46 in997.6 mb 0.00 in0.0 mm 0.00 in0.0 mm 0.00 in0.0 mm
05:20 PM 49.0°F9.4°C 25.7°F-3.5°C 40% 7.0 mph W11.3 kmh W 19.0 mph30.6 kmh 29.46 in997.6 mb 0.00 in0.0 mm 0.00 in0.0 mm 0.00 in0.0 mm
05:25 PM 48.6°F9.2°C 25.9°F-3.4°C 41% 6.0 mph WSW9.7 kmh WSW 16.0 mph25.7 kmh 29.46 in997.6 mb 0.00 in0.0 mm 0.00 in0.0 mm 0.00 in0.0 mm
05:30 PM 48.3°F9.1°C 25.7°F-3.5°C 41% 7.0 mph WSW11.3 kmh WSW 20.0 mph32.2 kmh 29.46 in997.6 mb 0.00 in0.0 mm 0.00 in0.0 mm 0.00 in0.0 mm
05:35 PM 48.0°F8.9°C 26.0°F-3.3°C 42% 9.0 mph WSW14.5 kmh WSW 20.0 mph32.2 kmh 29.46 in997.6 mb 0.00 in0.0 mm 0.00 in0.0 mm 0.00 in0.0 mm
05:40 PM 47.6°F8.7°C 26.7°F-2.9°C 44% 8.0 mph W12.9 kmh W 20.0 mph32.2 kmh 29.46 in997.6 mb 0.00 in0.0 mm 0.00 in0.0 mm 0.00 in0.0 mm
05:45 PM 47.2°F8.4°C 26.9°F-2.8°C 45% 6.0 mph W9.7 kmh W 17.0 mph27.4 kmh 29.46 in997.6 mb 0.00 in0.0 mm 0.00 in0.0 mm 0.00 in0.0 mm
05:50 PM 46.7°F8.2°C 25.9°F-3.4°C 44% 4.0 mph WNW6.4 kmh WNW 11.0 mph17.7 kmh 29.47 in998.0 mb 0.00 in0.0 mm 0.00 in0.0 mm 0.00 in0.0 mm
05:55 PM 46.4°F8.0°C 25.6°F-3.6°C 44% 5.0 mph WNW8.0 kmh WNW 20.0 mph32.2 kmh 29.47 in998.0 mb 0.00 in0.0 mm 0.00 in0.0 mm 0.00 in0.0 mm
06:00 PM 46.2°F7.9°C 26.5°F-3.1°C 46% 6.0 mph WNW9.7 kmh WNW 20.0 mph32.2 kmh 29.48 in998.3 mb 0.00 in0.0 mm 0.00 in0.0 mm 0.00 in0.0 mm
06:05 PM 45.9°F7.7°C 27.3°F-2.6°C 48% 6.0 mph WNW9.7 kmh WNW 20.0 mph32.2 kmh 29.48 in998.3 mb 0.00 in0.0 mm 0.00 in0.0 mm 0.00 in0.0 mm
06:10 PM 45.6°F7.6°C 27.0°F-2.8°C 48% 7.0 mph WNW11.3 kmh WNW 20.0 mph32.2 kmh 29.48 in998.3 mb 0.00 in0.0 mm 0.00 in0.0 mm 0.00 in0.0 mm
06:15 PM 45.2°F7.3°C 26.1°F-3.3°C 47% 6.0 mph NW9.7 kmh NW 16.0 mph25.7 kmh 29.48 in998.3 mb 0.00 in0.0 mm 0.00 in0.0 mm 0.00 in0.0 mm
06:20 PM 45.1°F7.3°C 27.1°F-2.7°C 49% 4.0 mph WNW6.4 kmh WNW 16.0 mph25.7 kmh 29.48 in998.3 mb 0.00 in0.0 mm 0.00 in0.0 mm 0.00 in0.0 mm
06:25 PM 45.2°F7.3°C 27.6°F-2.4°C 50% 5.0 mph WSW8.0 kmh WSW 14.0 mph22.5 kmh 29.48 in998.3 mb 0.00 in0.0 mm 0.00 in0.0 mm 0.00 in0.0 mm
06:30 PM 45.1°F7.3°C 28.5°F-1.9°C 52% 8.0 mph WSW12.9 kmh WSW 21.0 mph33.8 kmh 29.48 in998.3 mb 0.00 in0.0 mm 0.00 in0.0 mm 0.00 in0.0 mm
06:35 PM 44.9°F7.2°C 29.2°F-1.6°C 54% 8.0 mph WSW12.9 kmh WSW 21.0 mph33.8 kmh 29.49 in998.6 mb 0.00 in0.0 mm 0.00 in0.0 mm 0.00 in0.0 mm
06:40 PM 44.5°F6.9°C 29.8°F-1.2°C 56% 9.0 mph WSW14.5 kmh WSW 19.0 mph30.6 kmh 29.49 in998.6 mb 0.00 in0.0 mm 0.00 in0.0 mm 0.00 in0.0 mm
06:45 PM 44.1°F6.7°C 30.3°F-0.9°C 58% 9.0 mph WSW14.5 kmh WSW 22.0 mph35.4 kmh 29.49 in998.6 mb 0.00 in0.0 mm 0.00 in0.0 mm 0.00 in0.0 mm
06:50 PM 43.7°F6.5°C 30.7°F-0.7°C 60% 9.0 mph WSW14.5 kmh WSW 22.0 mph35.4 kmh 29.49 in998.6 mb 0.00 in0.0 mm 0.00 in0.0 mm 0.00 in0.0 mm
06:55 PM 43.2°F6.2°C 30.6°F-0.8°C 61% 9.0 mph WSW14.5 kmh WSW 17.0 mph27.4 kmh 29.50 in999.0 mb 0.00 in0.0 mm 0.00 in0.0 mm 0.00 in0.0 mm
07:00 PM 42.5°F5.8°C 30.4°F-0.9°C 62% 10.0 mph WSW16.1 kmh WSW 21.0 mph33.8 kmh 29.50 in999.0 mb 0.00 in0.0 mm 0.00 in0.0 mm 0.00 in0.0 mm
07:05 PM 41.9°F5.5°C 30.2°F-1.0°C 63% 10.0 mph WSW16.1 kmh WSW 22.0 mph35.4 kmh 29.50 in999.0 mb 0.00 in0.0 mm 0.00 in0.0 mm 0.00 in0.0 mm
07:10 PM 41.4°F5.2°C 30.1°F-1.1°C 64% 10.0 mph WSW16.1 kmh WSW 22.0 mph35.4 kmh 29.50 in999.0 mb 0.00 in0.0 mm 0.00 in0.0 mm 0.00 in0.0 mm
07:15 PM 41.0°F5.0°C 30.1°F-1.1°C 65% 10.0 mph WSW16.1 kmh WSW 19.0 mph30.6 kmh 29.50 in999.0 mb 0.00 in0.0 mm 0.00 in0.0 mm 0.00 in0.0 mm
07:20 PM 40.5°F4.7°C 29.7°F-1.3°C 65% 10.0 mph WSW16.1 kmh WSW 19.0 mph30.6 kmh 29.51 in999.3 mb 0.00 in0.0 mm 0.00 in0.0 mm 0.00 in0.0 mm
07:25 PM 40.0°F4.4°C 29.6°F-1.3°C 66% 10.0 mph WSW16.1 kmh WSW 24.0 mph38.6 kmh 29.50 in999.0 mb 0.00 in0.0 mm 0.00 in0.0 mm 0.00 in0.0 mm
07:30 PM 39.5°F4.2°C 29.4°F-1.4°C 67% 12.0 mph WSW19.3 kmh WSW 24.0 mph38.6 kmh 29.50 in999.0 mb 0.00 in0.0 mm 0.00 in0.0 mm 0.00 in0.0 mm
07:35 PM 39.1°F3.9°C 29.4°F-1.4°C 68% 11.0 mph WSW17.7 kmh WSW 23.0 mph37.0 kmh 29.50 in999.0 mb 0.00 in0.0 mm 0.00 in0.0 mm 0.00 in0.0 mm
07:40 PM 38.7°F3.7°C 29.0°F-1.7°C 68% 11.0 mph WSW17.7 kmh WSW 24.0 mph38.6 kmh 29.51 in999.3 mb 0.00 in0.0 mm 0.00 in0.0 mm 0.00 in0.0 mm
07:45 PM 38.3°F3.5°C 29.0°F-1.7°C 69% 12.0 mph WSW19.3 kmh WSW 24.0 mph38.6 kmh 29.51 in999.3 mb 0.00 in0.0 mm 0.00 in0.0 mm 0.00 in0.0 mm
07:50 PM 38.1°F3.4°C 29.2°F-1.6°C 70% 11.0 mph WSW17.7 kmh WSW 23.0 mph37.0 kmh 29.51 in999.3 mb 0.00 in0.0 mm 0.00 in0.0 mm 0.00 in0.0 mm
07:55 PM 37.9°F3.3°C 29.0°F-1.7°C 70% 12.0 mph WSW19.3 kmh WSW 25.0 mph40.2 kmh 29.52 in999.7 mb 0.00 in0.0 mm 0.00 in0.0 mm 0.00 in0.0 mm
08:00 PM 37.6°F3.1°C 29.0°F-1.7°C 71% 12.0 mph WSW19.3 kmh WSW 25.0 mph40.2 kmh 29.52 in999.7 mb 0.00 in0.0 mm 0.00 in0.0 mm 0.00 in0.0 mm
08:05 PM 37.4°F3.0°C 28.9°F-1.7°C 71% 11.0 mph WSW17.7 kmh WSW 21.0 mph33.8 kmh 29.52 in999.7 mb 0.00 in0.0 mm 0.00 in0.0 mm 0.00 in0.0 mm
08:10 PM 37.3°F2.9°C 29.1°F-1.6°C 72% 10.0 mph WSW16.1 kmh WSW 21.0 mph33.8 kmh 29.52 in999.7 mb 0.00 in0.0 mm 0.00 in0.0 mm 0.00 in0.0 mm
08:15 PM 37.1°F2.8°C 28.9°F-1.7°C 72% 10.0 mph SW16.1 kmh SW 25.0 mph40.2 kmh 29.52 in999.7 mb 0.00 in0.0 mm 0.00 in0.0 mm 0.00 in0.0 mm
08:20 PM 37.0°F2.8°C 29.1°F-1.6°C 73% 10.0 mph SW16.1 kmh SW 25.0 mph40.2 kmh 29.53 in1000.0 mb 0.00 in0.0 mm 0.00 in0.0 mm 0.00 in0.0 mm
08:25 PM 36.8°F2.7°C 29.0°F-1.7°C 73% 10.0 mph SW16.1 kmh SW 18.0 mph29.0 kmh 29.53 in1000.0 mb 0.00 in0.0 mm 0.00 in0.0 mm 0.00 in0.0 mm
08:30 PM 36.6°F2.6°C 28.8°F-1.8°C 73% 10.0 mph SW16.1 kmh SW 20.0 mph32.2 kmh 29.53 in1000.0 mb 0.00 in0.0 mm 0.00 in0.0 mm 0.00 in0.0 mm
08:35 PM 36.4°F2.4°C 28.9°F-1.7°C 74% 9.0 mph SW14.5 kmh SW 20.0 mph32.2 kmh 29.54 in1000.3 mb 0.00 in0.0 mm 0.00 in0.0 mm 0.00 in0.0 mm
08:40 PM 36.2°F2.3°C 28.7°F-1.8°C 74% 10.0 mph SW16.1 kmh SW 19.0 mph30.6 kmh 29.54 in1000.3 mb 0.00 in0.0 mm 0.00 in0.0 mm 0.00 in0.0 mm
08:45 PM 36.1°F2.3°C 28.6°F-1.9°C 74% 11.0 mph SW17.7 kmh SW 19.0 mph30.6 kmh 29.54 in1000.3 mb 0.00 in0.0 mm 0.00 in0.0 mm 0.00 in0.0 mm
08:50 PM 35.9°F2.2°C 28.7°F-1.8°C 75% 11.0 mph SW17.7 kmh SW 22.0 mph35.4 kmh 29.54 in1000.3 mb 0.00 in0.0 mm 0.00 in0.0 mm 0.00 in0.0 mm
08:55 PM 35.7°F2.1°C 28.6°F-1.9°C 75% 11.0 mph WSW17.7 kmh WSW 22.0 mph35.4 kmh 29.55 in1000.7 mb 0.00 in0.0 mm 0.00 in0.0 mm 0.00 in0.0 mm
09:00 PM 35.6°F2.0°C 28.8°F-1.8°C 76% 9.0 mph SW14.5 kmh SW 20.0 mph32.2 kmh 29.55 in1000.7 mb 0.00 in0.0 mm 0.00 in0.0 mm 0.00 in0.0 mm
09:05 PM 35.5°F1.9°C 28.7°F-1.8°C 76% 10.0 mph SW16.1 kmh SW 21.0 mph33.8 kmh 29.55 in1000.7 mb 0.00 in0.0 mm 0.00 in0.0 mm 0.00 in0.0 mm
09:10 PM 35.4°F1.9°C 28.6°F-1.9°C 76% 9.0 mph SW14.5 kmh SW 21.0 mph33.8 kmh 29.55 in1000.7 mb 0.00 in0.0 mm 0.00 in0.0 mm 0.00 in0.0 mm
09:15 PM 35.3°F1.8°C 28.5°F-1.9°C 76% 8.0 mph SW12.9 kmh SW 22.0 mph35.4 kmh 29.56 in1001.0 mb 0.00 in0.0 mm 0.00 in0.0 mm 0.00 in0.0 mm
09:20 PM 35.2°F1.8°C 28.7°F-1.8°C 77% 9.0 mph WSW14.5 kmh WSW 22.0 mph35.4 kmh 29.56 in1001.0 mb 0.00 in0.0 mm 0.00 in0.0 mm 0.00 in0.0 mm
09:25 PM 35.1°F1.7°C 28.6°F-1.9°C 77% 8.0 mph WSW12.9 kmh WSW 18.0 mph29.0 kmh 29.56 in1001.0 mb 0.00 in0.0 mm 0.00 in0.0 mm 0.00 in0.0 mm
09:30 PM 35.1°F1.7°C 28.6°F-1.9°C 77% 7.0 mph WSW11.3 kmh WSW 17.0 mph27.4 kmh 29.56 in1001.0 mb 0.00 in0.0 mm 0.00 in0.0 mm 0.00 in0.0 mm
09:35 PM 35.0°F1.7°C 28.5°F-1.9°C 77% 9.0 mph WSW14.5 kmh WSW 19.0 mph30.6 kmh 29.57 in1001.4 mb 0.00 in0.0 mm 0.00 in0.0 mm 0.00 in0.0 mm
09:40 PM 35.0°F1.7°C 28.5°F-1.9°C 77% 9.0 mph WSW14.5 kmh WSW 19.0 mph30.6 kmh 29.57 in1001.4 mb 0.00 in0.0 mm 0.00 in0.0 mm 0.00 in0.0 mm
09:45 PM 34.8°F1.6°C 28.3°F-2.1°C 77% 7.0 mph WSW11.3 kmh WSW 17.0 mph27.4 kmh 29.57 in1001.4 mb 0.00 in0.0 mm 0.00 in0.0 mm 0.00 in0.0 mm
09:50 PM 34.7°F1.5°C 28.2°F-2.1°C 77% 7.0 mph WSW11.3 kmh WSW 21.0 mph33.8 kmh 29.57 in1001.4 mb 0.00 in0.0 mm 0.00 in0.0 mm 0.00 in0.0 mm
09:55 PM 34.6°F1.4°C 28.4°F-2.0°C 78% 8.0 mph WSW12.9 kmh WSW 21.0 mph33.8 kmh 29.57 in1001.4 mb 0.00 in0.0 mm 0.00 in0.0 mm 0.00 in0.0 mm
10:00 PM 34.5°F1.4°C 28.3°F-2.1°C 78% 8.0 mph WSW12.9 kmh WSW 19.0 mph30.6 kmh 29.57 in1001.4 mb 0.00 in0.0 mm 0.00 in0.0 mm 0.00 in0.0 mm
10:05 PM 34.4°F1.3°C 28.2°F-2.1°C 78% 8.0 mph WSW12.9 kmh WSW 19.0 mph30.6 kmh 29.57 in1001.4 mb 0.00 in0.0 mm 0.00 in0.0 mm 0.00 in0.0 mm
10:10 PM 34.4°F1.3°C 28.2°F-2.1°C 78% 9.0 mph WSW14.5 kmh WSW 20.0 mph32.2 kmh 29.57 in1001.4 mb 0.00 in0.0 mm 0.00 in0.0 mm 0.00 in0.0 mm
10:15 PM 34.4°F1.3°C 28.6°F-1.9°C 79% 10.0 mph WSW16.1 kmh WSW 20.0 mph32.2 kmh 29.58 in1001.7 mb 0.00 in0.0 mm 0.00 in0.0 mm 0.00 in0.0 mm
10:20 PM 34.4°F1.3°C 28.6°F-1.9°C 79% 9.0 mph WSW14.5 kmh WSW 20.0 mph32.2 kmh 29.57 in1001.4 mb 0.00 in0.0 mm 0.00 in0.0 mm 0.00 in0.0 mm
10:25 PM 34.2°F1.2°C 28.4°F-2.0°C 79% 10.0 mph SW16.1 kmh SW 20.0 mph32.2 kmh 29.58 in1001.7 mb 0.00 in0.0 mm 0.00 in0.0 mm 0.00 in0.0 mm
10:30 PM 34.1°F1.2°C 28.3°F-2.1°C 79% 9.0 mph WSW14.5 kmh WSW 21.0 mph33.8 kmh 29.58 in1001.7 mb 0.00 in0.0 mm 0.00 in0.0 mm 0.00 in0.0 mm
10:35 PM 33.9°F1.1°C 28.1°F-2.2°C 79% 10.0 mph WSW16.1 kmh WSW 21.0 mph33.8 kmh 29.58 in1001.7 mb 0.00 in0.0 mm 0.00 in0.0 mm 0.00 in0.0 mm
10:40 PM 33.7°F0.9°C 28.2°F-2.1°C 80% 10.0 mph WSW16.1 kmh WSW 20.0 mph32.2 kmh 29.58 in1001.7 mb 0.00 in0.0 mm 0.00 in0.0 mm 0.00 in0.0 mm
10:45 PM 33.5°F0.8°C 28.0°F-2.2°C 80% 10.0 mph WSW16.1 kmh WSW 22.0 mph35.4 kmh 29.58 in1001.7 mb 0.00 in0.0 mm 0.00 in0.0 mm 0.00 in0.0 mm
10:50 PM 33.3°F0.7°C 28.1°F-2.2°C 81% 9.0 mph WSW14.5 kmh WSW 22.0 mph35.4 kmh 29.58 in1001.7 mb 0.00 in0.0 mm 0.00 in0.0 mm 0.00 in0.0 mm
10:55 PM 33.2°F0.7°C 28.0°F-2.2°C 81% 8.0 mph WSW12.9 kmh WSW 20.0 mph32.2 kmh 29.59 in1002.0 mb 0.00 in0.0 mm 0.00 in0.0 mm 0.00 in0.0 mm
11:10 PM 32.9°F0.5°C 28.0°F-2.2°C 82% 6.0 mph WSW9.7 kmh WSW 16.0 mph25.7 kmh 29.59 in1002.0 mb 0.00 in0.0 mm 0.00 in0.0 mm 0.00 in0.0 mm
11:15 PM 32.8°F0.4°C 27.9°F-2.3°C 82% 7.0 mph WSW11.3 kmh WSW 17.0 mph27.4 kmh 29.59 in1002.0 mb 0.00 in0.0 mm 0.00 in0.0 mm 0.00 in0.0 mm
11:20 PM 32.8°F0.4°C 28.2°F-2.1°C 83% 7.0 mph WSW11.3 kmh WSW 17.0 mph27.4 kmh 29.60 in1002.4 mb 0.00 in0.0 mm 0.00 in0.0 mm 0.00 in0.0 mm
11:25 PM 32.7°F0.4°C 28.1°F-2.2°C 83% 6.0 mph WSW9.7 kmh WSW 14.0 mph22.5 kmh 29.60 in1002.4 mb 0.00 in0.0 mm 0.00 in0.0 mm 0.00 in0.0 mm
11:30 PM 32.6°F0.3°C 28.0°F-2.2°C 83% 6.0 mph WSW9.7 kmh WSW 14.0 mph22.5 kmh 29.60 in1002.4 mb 0.00 in0.0 mm 0.00 in0.0 mm 0.00 in0.0 mm
11:35 PM 32.6°F0.3°C 28.0°F-2.2°C 83% 6.0 mph SW9.7 kmh SW 14.0 mph22.5 kmh 29.60 in1002.4 mb 0.00 in0.0 mm 0.00 in0.0 mm 0.00 in0.0 mm
11:40 PM 32.5°F0.3°C 27.9°F-2.3°C 83% 6.0 mph WSW9.7 kmh WSW 13.0 mph20.9 kmh 29.61 in1002.7 mb 0.00 in0.0 mm 0.00 in0.0 mm 0.00 in0.0 mm
11:45 PM 32.5°F0.3°C 27.6°F-2.4°C 82% 5.0 mph WSW8.0 kmh WSW 17.0 mph27.4 kmh 29.61 in1002.7 mb 0.00 in0.0 mm 0.00 in0.0 mm 0.00 in0.0 mm
11:50 PM 32.5°F0.3°C 27.6°F-2.4°C 82% 5.0 mph WSW8.0 kmh WSW 17.0 mph27.4 kmh 29.61 in1002.7 mb 0.00 in0.0 mm 0.00 in0.0 mm 0.00 in0.0 mm
11:55 PM 32.4°F0.2°C 27.5°F-2.5°C 82% 6.0 mph SW9.7 kmh SW 17.0 mph27.4 kmh 29.61 in1002.7 mb 0.00 in0.0 mm 0.00 in0.0 mm 0.00 in0.0 mm